Time;durP1;ratioP1;P1;durP2;ratioP2;P2;SDS_P1;SDS_P2;PMS_P1;PMS_P2;Temp;Humidity;BMP_temperature;BMP_pressure;BME280_temperature;BME280_humidity;BME280_pressure;Samples;Min_cycle;Max_cycle;Signal;HPM_P1;HPM_P2
2023/03/10 00:01:31;;;;;;;3.25;1.65;;;3.50;99.90;;;;;;5035476;28;20508;-74
2023/03/10 00:03:59;;;;;;;0.65;0.47;;;3.50;99.90;;;;;;5019898;28;20083;-74
2023/03/10 00:06:27;;;;;;;1.65;1.02;;;3.50;99.90;;;;;;5034733;28;20040;-74
2023/03/10 00:08:53;;;;;;;1.48;0.98;;;3.50;99.90;;;;;;5027448;28;20120;-74
2023/03/10 00:11:19;;;;;;;1.70;1.15;;;3.50;99.90;;;;;;5015326;28;20092;-74
2023/03/10 00:13:45;;;;;;;2.50;1.45;;;3.50;99.90;;;;;;5032359;28;20186;-74
2023/03/10 00:16:20;;;;;;;0.20;0.20;;;3.50;99.90;;;;;;5035256;28;20033;-73
2023/03/10 00:18:47;;;;;;;3.13;1.23;;;3.50;99.90;;;;;;5035052;28;20033;-74
2023/03/10 00:21:16;;;;;;;2.33;0.75;;;3.50;99.90;;;;;;5035063;28;20143;-74
2023/03/10 00:23:42;;;;;;;1.17;1.02;;;3.50;99.90;;;;;;5033573;28;20064;-74
2023/03/10 00:26:10;;;;;;;1.30;0.90;;;3.50;99.90;;;;;;5020489;28;20030;-75
2023/03/10 00:28:36;;;;;;;0.30;0.30;;;3.50;99.90;;;;;;5034199;28;20128;-74
2023/03/10 00:31:04;;;;;;;3.15;1.17;;;3.50;99.90;;;;;;5033851;28;20439;-75
2023/03/10 00:33:31;;;;;;;3.92;1.55;;;3.50;99.90;;;;;;5015027;28;20026;-74
2023/03/10 00:36:22;;;;;;;0.45;0.45;;;3.50;99.90;;;;;;5014707;28;20022;-74
2023/03/10 00:38:49;;;;;;;1.92;1.52;;;3.50;99.90;;;;;;5014072;28;20066;-74
2023/03/10 00:41:17;;;;;;;3.30;0.50;;;3.60;99.90;;;;;;5014959;28;20034;-74
2023/03/10 00:43:43;;;;;;;4.95;1.45;;;3.60;99.90;;;;;;5014747;28;20049;-74
2023/03/10 00:46:09;;;;;;;2.47;0.90;;;3.60;99.90;;;;;;5017892;28;20025;-73
2023/03/10 00:48:36;;;;;;;1.65;0.73;;;3.60;99.90;;;;;;5034128;28;20034;-74
2023/03/10 00:51:03;;;;;;;3.03;1.85;;;3.60;99.90;;;;;;5034374;28;20025;-74
2023/03/10 00:53:30;;;;;;;1.98;1.02;;;3.60;99.90;;;;;;5034233;28;20030;-74
2023/03/10 00:56:04;;;;;;;2.75;1.00;;;3.60;99.90;;;;;;5034544;28;20037;-74
2023/03/10 00:58:31;;;;;;;1.45;0.57;;;3.60;99.90;;;;;;5034219;28;20025;-74
2023/03/10 01:00:57;;;;;;;1.92;0.82;;;3.60;99.90;;;;;;5025323;28;20112;-74
2023/03/10 01:03:24;;;;;;;0.28;0.28;;;3.60;99.90;;;;;;5033853;28;20079;-74
2023/03/10 01:05:52;;;;;;;0.63;0.63;;;3.60;99.90;;;;;;5031924;28;20033;-73
2023/03/10 01:08:18;;;;;;;2.25;1.13;;;3.60;99.90;;;;;;5033665;28;20037;-74
2023/03/10 01:10:45;;;;;;;0.35;0.35;;;3.60;99.90;;;;;;5033300;28;20092;-74
2023/03/10 01:13:13;;;;;;;0.10;0.10;;;3.60;99.90;;;;;;5033983;28;20133;-74
2023/03/10 01:15:40;;;;;;;0.63;0.60;;;3.60;99.90;;;;;;5029768;28;20037;-73
2023/03/10 01:18:06;;;;;;;0.65;0.65;;;3.70;99.90;;;;;;5022230;28;20038;-74
2023/03/10 01:20:32;;;;;;;1.48;1.35;;;3.70;99.90;;;;;;5020919;28;20040;-73
2023/03/10 01:22:58;;;;;;;0.65;0.65;;;3.70;99.90;;;;;;5033856;28;20053;-73
2023/03/10 01:25:24;;;;;;;1.75;0.50;;;3.70;99.90;;;;;;5032598;28;20029;-74
2023/03/10 01:27:50;;;;;;;0.25;0.25;;;3.70;99.90;;;;;;5033765;28;20076;-74
2023/03/10 01:30:16;;;;;;;0.73;0.73;;;3.70;99.90;;;;;;5033365;28;20057;-73
2023/03/10 01:32:42;;;;;;;1.48;0.90;;;3.70;99.90;;;;;;5030004;28;20038;-74
2023/03/10 01:35:08;;;;;;;0.47;0.47;;;3.70;99.90;;;;;;5013891;28;20462;-73
2023/03/10 01:37:34;;;;;;;0.40;0.40;;;3.70;99.90;;;;;;5019310;28;20094;-73
2023/03/10 01:40:03;;;;;;;1.65;1.00;;;3.80;99.90;;;;;;5013598;28;20076;-73
2023/03/10 01:42:29;;;;;;;1.55;0.75;;;3.70;99.90;;;;;;5014153;28;20033;-74
2023/03/10 01:45:05;;;;;;;2.97;2.13;;;3.70;99.90;;;;;;5013718;28;20577;-73
2023/03/10 01:47:31;;;;;;;1.73;1.27;;;3.70;99.90;;;;;;5013283;28;20034;-73
2023/03/10 01:49:57;;;;;;;2.08;1.35;;;3.70;99.90;;;;;;5013510;28;20032;-73
2023/03/10 01:52:28;;;;;;;0.40;0.40;;;3.70;99.90;;;;;;5013614;28;20049;-74
2023/03/10 01:55:08;;;;;;;1.95;1.52;;;3.70;99.90;;;;;;5030340;28;20049;-73
2023/03/10 01:57:38;;;;;;;0.47;0.47;;;3.70;99.90;;;;;;5032486;28;20032;-73
2023/03/10 02:00:12;;;;;;;0.20;0.20;;;3.70;99.90;;;;;;5019662;28;20487;-73
2023/03/10 02:02:53;;;;;;;1.30;0.80;;;3.70;99.90;;;;;;5013345;28;20121;-73
2023/03/10 02:05:20;;;;;;;0.40;0.40;;;3.70;99.90;;;;;;5013441;28;20033;-73
2023/03/10 02:07:47;;;;;;;1.48;1.13;;;3.70;99.90;;;;;;5013095;28;20083;-74
2023/03/10 02:10:14;;;;;;;1.75;0.95;;;3.70;99.90;;;;;;5013486;28;20025;-74
2023/03/10 02:12:42;;;;;;;0.63;0.63;;;3.70;99.90;;;;;;5028945;28;20433;-73
2023/03/10 02:15:08;;;;;;;2.63;0.63;;;3.70;99.90;;;;;;5032883;28;20108;-73
2023/03/10 02:17:34;;;;;;;0.73;0.52;;;3.70;99.90;;;;;;5031407;28;20030;-73
2023/03/10 02:20:12;;;;;;;1.27;1.17;;;3.70;99.90;;;;;;5032928;28;20465;-73
2023/03/10 02:22:38;;;;;;;1.60;0.55;;;3.70;99.90;;;;;;5032740;28;20099;-73
2023/03/10 02:25:24;;;;;;;5.20;1.80;;;3.70;99.90;;;;;;5032769;28;20033;-73
2023/03/10 02:27:50;;;;;;;4.38;0.60;;;3.60;99.90;;;;;;5017894;28;20087;-73
2023/03/10 02:30:23;;;;;;;0.45;0.30;;;3.60;99.90;;;;;;5032843;28;20076;-74
2023/03/10 02:32:59;;;;;;;1.85;1.55;;;3.60;99.90;;;;;;5032024;28;20689;-73
2023/03/10 02:35:24;;;;;;;0.95;0.85;;;3.60;99.90;;;;;;5027722;28;20502;-73
2023/03/10 02:37:50;;;;;;;1.10;0.70;;;3.60;99.90;;;;;;5030317;28;20026;-73
2023/03/10 02:40:31;;;;;;;1.85;1.75;;;3.60;99.90;;;;;;5012783;28;20428;-73
2023/03/10 02:42:58;;;;;;;0.65;0.65;;;3.60;99.90;;;;;;5012721;28;20063;-74
2023/03/10 02:45:27;;;;;;;0.50;0.50;;;3.50;99.90;;;;;;5017611;28;20112;-74
2023/03/10 02:47:52;;;;;;;0.80;0.80;;;3.50;99.90;;;;;;5032332;28;20034;-74
2023/03/10 02:50:19;;;;;;;0.90;0.90;;;3.50;99.90;;;;;;5032009;28;20041;-74
2023/03/10 02:52:52;;;;;;;1.75;1.13;;;3.50;99.90;;;;;;5030305;28;20041;-74
2023/03/10 02:55:18;;;;;;;0.43;0.43;;;3.50;99.90;;;;;;5027159;28;20037;-74
2023/03/10 02:57:43;;;;;;;8.02;3.72;;;3.50;99.90;;;;;;5031947;28;20350;-74
2023/03/10 03:00:10;;;;;;;0.68;0.68;;;3.50;99.90;;;;;;5031248;28;20038;-74
2023/03/10 03:02:36;;;;;;;0.73;0.73;;;3.50;99.90;;;;;;5030879;28;20183;-74
2023/03/10 03:05:03;;;;;;;1.55;0.95;;;3.50;99.90;;;;;;5028595;28;20557;-74
2023/03/10 03:07:29;;;;;;;0.40;0.40;;;3.50;99.90;;;;;;5028513;28;20057;-74
2023/03/10 03:09:54;;;;;;;0.20;0.20;;;3.50;99.90;;;;;;5029529;28;20091;-74
2023/03/10 03:12:20;;;;;;;0.65;0.32;;;3.50;99.90;;;;;;5026769;28;20508;-74
2023/03/10 03:14:45;;;;;;;0.52;0.52;;;3.50;99.90;;;;;;5030964;28;20116;-74
2023/03/10 03:17:11;;;;;;;0.68;0.68;;;3.50;99.90;;;;;;5028804;28;20061;-74
2023/03/10 03:19:37;;;;;;;0.90;0.57;;;3.50;99.90;;;;;;5030755;28;20693;-74
2023/03/10 03:22:02;;;;;;;0.65;0.65;;;3.50;99.90;;;;;;5031816;28;20032;-74
2023/03/10 03:24:28;;;;;;;1.10;0.43;;;3.50;99.90;;;;;;5031529;28;20026;-74
2023/03/10 03:26:54;;;;;;;0.40;0.40;;;3.50;99.90;;;;;;5021571;28;20466;-74
2023/03/10 03:29:19;;;;;;;0.38;0.38;;;3.50;99.90;;;;;;5024994;28;20050;-73
2023/03/10 03:31:45;;;;;;;0.50;0.50;;;3.50;99.90;;;;;;5026022;28;20038;-74
2023/03/10 03:34:10;;;;;;;3.95;1.75;;;3.50;99.90;;;;;;5031644;28;20076;-73
2023/03/10 03:36:36;;;;;;;0.75;0.45;;;3.50;99.90;;;;;;5031426;28;20034;-73
2023/03/10 03:39:05;;;;;;;1.15;0.82;;;3.50;99.90;;;;;;5031381;28;20025;-74
2023/03/10 03:41:31;;;;;;;0.20;0.20;;;3.60;99.90;;;;;;5031208;28;20075;-74
2023/03/10 03:43:56;;;;;;;0.93;0.45;;;3.60;99.90;;;;;;5013749;28;20026;-74
2023/03/10 03:46:22;;;;;;;0.88;0.77;;;3.60;99.90;;;;;;5031712;28;20034;-74
2023/03/10 03:48:47;;;;;;;1.45;0.52;;;3.60;99.90;;;;;;5031752;28;20035;-74
2023/03/10 03:51:13;;;;;;;8.40;0.68;;;3.60;99.90;;;;;;5031366;28;20025;-74
2023/03/10 03:53:38;;;;;;;0.75;0.47;;;3.60;99.90;;;;;;5031486;28;20018;-74
2023/03/10 03:56:04;;;;;;;0.60;0.60;;;3.60;99.90;;;;;;5031035;28;20034;-74
2023/03/10 03:58:30;;;;;;;1.38;1.27;;;3.50;99.90;;;;;;5031415;28;20119;-74
2023/03/10 04:00:55;;;;;;;0.10;0.10;;;3.50;99.90;;;;;;5013541;28;20536;-74
2023/03/10 04:03:21;;;;;;;0.38;0.38;;;3.40;99.90;;;;;;5031492;28;20096;-73
2023/03/10 04:05:47;;;;;;;0.40;0.40;;;3.40;99.90;;;;;;5031640;28;20065;-73
2023/03/10 04:08:13;;;;;;;0.57;0.57;;;3.40;99.90;;;;;;5031399;28;20120;-73
2023/03/10 04:10:39;;;;;;;0.90;0.50;;;3.40;99.90;;;;;;5013350;28;20386;-73
2023/03/10 04:13:04;;;;;;;1.67;0.82;;;3.40;99.90;;;;;;5031119;28;20050;-74
2023/03/10 04:15:30;;;;;;;1.92;0.93;;;3.40;99.90;;;;;;5031249;28;20180;-74
2023/03/10 04:17:56;;;;;;;0.95;0.45;;;3.40;99.90;;;;;;5031279;28;20071;-74
2023/03/10 04:20:24;;;;;;;0.40;0.40;;;3.40;99.90;;;;;;5033228;28;20021;-75
2023/03/10 04:22:51;;;;;;;0.73;0.73;;;3.40;99.90;;;;;;5034394;28;20414;-74
2023/03/10 04:25:17;;;;;;;0.75;0.75;;;3.40;99.90;;;;;;5033705;28;20027;-75
2023/03/10 04:27:42;;;;;;;4.60;1.00;;;3.40;99.90;;;;;;5015582;28;20026;-75
2023/03/10 04:30:11;;;;;;;0.90;0.43;;;3.40;99.90;;;;;;5034469;28;20049;-73
2023/03/10 04:32:37;;;;;;;0.43;0.43;;;3.40;99.90;;;;;;5034578;28;20040;-74
2023/03/10 04:35:03;;;;;;;0.35;0.35;;;3.40;99.90;;;;;;5034826;28;20033;-74
2023/03/10 04:37:29;;;;;;;0.15;0.15;;;3.40;99.90;;;;;;5034529;28;20025;-73
2023/03/10 04:39:56;;;;;;;1.48;0.65;;;3.40;99.90;;;;;;5033805;28;20079;-72
2023/03/10 04:42:22;;;;;;;0.95;0.90;;;3.40;99.90;;;;;;5034446;28;20013;-74
2023/03/10 04:44:47;;;;;;;0.20;0.20;;;3.40;99.90;;;;;;5034829;28;20025;-75
2023/03/10 04:47:13;;;;;;;0.50;0.50;;;3.40;99.90;;;;;;5034383;28;20479;-74
2023/03/10 04:49:39;;;;;;;0.30;0.30;;;3.40;99.90;;;;;;5034127;28;20029;-74
2023/03/10 04:52:04;;;;;;;0.40;0.40;;;3.40;99.90;;;;;;5034025;28;20508;-76
2023/03/10 04:54:30;;;;;;;0.85;0.85;;;3.40;99.90;;;;;;5033943;28;20116;-74
2023/03/10 04:56:56;;;;;;;2.53;1.40;;;3.30;99.90;;;;;;5033863;28;20105;-76
2023/03/10 04:59:21;;;;;;;2.15;1.33;;;3.30;99.90;;;;;;5033690;28;20458;-73
2023/03/10 05:01:47;;;;;;;0.55;0.20;;;3.30;99.90;;;;;;5034011;28;20021;-74
2023/03/10 05:04:13;;;;;;;1.52;1.45;;;3.30;99.90;;;;;;5034246;28;20525;-74
2023/03/10 05:06:38;;;;;;;0.10;0.10;;;3.30;99.90;;;;;;5034201;28;20159;-75
2023/03/10 05:09:04;;;;;;;0.90;0.73;;;3.30;99.90;;;;;;5015864;28;20394;-74
2023/03/10 05:11:30;;;;;;;0.40;0.40;;;3.30;99.90;;;;;;5032656;28;20127;-73
2023/03/10 05:13:56;;;;;;;0.52;0.52;;;3.30;99.90;;;;;;5033912;28;20354;-73
2023/03/10 05:16:22;;;;;;;0.30;0.30;;;3.30;99.90;;;;;;5033933;28;20037;-73
2023/03/10 05:18:48;;;;;;;0.32;0.32;;;3.30;99.90;;;;;;5033874;28;20029;-73
2023/03/10 05:21:14;;;;;;;0.57;0.57;;;3.30;99.90;;;;;;5033674;28;20025;-73
2023/03/10 05:23:40;;;;;;;0.52;0.52;;;3.30;99.90;;;;;;5033880;28;20147;-73
2023/03/10 05:26:07;;;;;;;0.20;0.20;;;3.30;99.90;;;;;;5033694;28;20057;-74
2023/03/10 05:28:33;;;;;;;0.73;0.73;;;3.30;99.90;;;;;;5034308;28;20028;-74
2023/03/10 05:30:59;;;;;;;1.35;1.35;;;3.30;99.90;;;;;;5032271;28;20879;-74
2023/03/10 05:33:24;;;;;;;0.52;0.52;;;3.30;99.90;;;;;;5033429;28;20501;-74
2023/03/10 05:35:50;;;;;;;0.65;0.65;;;3.40;99.90;;;;;;5033434;28;20058;-74
2023/03/10 05:38:16;;;;;;;0.20;0.20;;;3.30;99.90;;;;;;5033379;28;20100;-73
2023/03/10 05:40:43;;;;;;;5.88;0.82;;;3.30;99.90;;;;;;5033796;28;20049;-73
2023/03/10 05:43:09;;;;;;;0.13;0.13;;;3.30;99.90;;;;;;5033745;28;20025;-74
2023/03/10 05:45:35;;;;;;;0.35;0.35;;;3.30;99.90;;;;;;5033668;28;20052;-74
2023/03/10 05:48:01;;;;;;;0.55;0.40;;;3.30;99.90;;;;;;5033285;28;20021;-74
2023/03/10 05:50:26;;;;;;;0.17;0.17;;;3.30;99.90;;;;;;5033451;28;20091;-74
2023/03/10 05:52:52;;;;;;;1.30;0.63;;;3.30;99.90;;;;;;5033524;28;20056;-74
2023/03/10 05:55:18;;;;;;;0.63;0.52;;;3.30;99.90;;;;;;5033336;28;20101;-74
2023/03/10 05:57:45;;;;;;;0.10;0.10;;;3.30;99.90;;;;;;5033371;28;20017;-74
2023/03/10 06:00:13;;;;;;;0.65;0.65;;;3.30;99.90;;;;;;5033127;28;20033;-73
2023/03/10 06:02:39;;;;;;;0.45;0.45;;;3.30;99.90;;;;;;5033295;28;20021;-74
2023/03/10 06:05:07;;;;;;;0.30;0.30;;;3.30;99.90;;;;;;5032661;28;20025;-74
2023/03/10 06:07:33;;;;;;;0.10;0.10;;;3.30;99.90;;;;;;5015132;28;20034;-75
2023/03/10 06:09:59;;;;;;;3.17;1.02;;;3.30;99.90;;;;;;5033335;28;20036;-73
2023/03/10 06:12:24;;;;;;;0.75;0.52;;;3.30;99.90;;;;;;5033061;28;20038;-74
2023/03/10 06:14:50;;;;;;;0.10;0.10;;;3.30;99.90;;;;;;5032918;28;20041;-73
2023/03/10 06:17:15;;;;;;;0.73;0.60;;;3.30;99.90;;;;;;5032994;28;20069;-73
2023/03/10 06:19:41;;;;;;;1.25;0.95;;;3.30;99.90;;;;;;5032943;28;20017;-76
2023/03/10 06:22:07;;;;;;;0.55;0.38;;;3.30;99.90;;;;;;5032787;28;20037;-74
2023/03/10 06:24:32;;;;;;;0.80;0.40;;;3.30;99.90;;;;;;5031950;28;20037;-75
2023/03/10 06:26:58;;;;;;;0.77;0.55;;;3.30;99.90;;;;;;5032367;28;20026;-75
2023/03/10 06:29:23;;;;;;;2.90;1.20;;;3.30;99.90;;;;;;5032313;28;20049;-74
2023/03/10 06:31:49;;;;;;;1.35;0.50;;;3.30;99.90;;;;;;5032480;28;20033;-75
2023/03/10 06:34:14;;;;;;;0.45;0.45;;;3.30;99.90;;;;;;5032533;28;20089;-73
2023/03/10 06:36:40;;;;;;;0.10;0.10;;;3.30;99.90;;;;;;5032540;28;20411;-75
2023/03/10 06:39:06;;;;;;;0.30;0.30;;;3.30;99.90;;;;;;5014739;28;20433;-75
2023/03/10 06:41:34;;;;;;;0.20;0.20;;;3.40;99.90;;;;;;5032141;28;20051;-74
2023/03/10 06:43:59;;;;;;;1.85;0.43;;;3.40;99.90;;;;;;5032084;28;20101;-75
2023/03/10 06:46:26;;;;;;;0.28;0.28;;;3.40;99.90;;;;;;5014571;28;20120;-75
2023/03/10 06:48:51;;;;;;;2.08;1.10;;;3.40;99.90;;;;;;5031729;28;20072;-74
2023/03/10 06:51:19;;;;;;;0.90;0.73;;;3.40;99.90;;;;;;5032114;28;20069;-74
2023/03/10 06:53:46;;;;;;;0.30;0.30;;;3.40;99.90;;;;;;5031793;28;20055;-73
2023/03/10 06:56:19;;;;;;;1.55;0.55;;;3.40;99.90;;;;;;5027097;28;20528;-74
2023/03/10 06:58:46;;;;;;;0.75;0.73;;;3.30;99.90;;;;;;5011533;28;20040;-76
2023/03/10 07:01:38;;;;;;;1.50;1.40;;;3.30;99.90;;;;;;5026034;28;20072;-73
2023/03/10 07:04:03;;;;;;;0.50;0.50;;;3.30;99.90;;;;;;5027453;28;20038;-75
2023/03/10 07:06:29;;;;;;;1.45;1.02;;;3.30;99.90;;;;;;5032017;28;20440;-72
2023/03/10 07:08:55;;;;;;;0.55;0.55;;;3.30;99.90;;;;;;5029689;28;20025;-73
2023/03/10 07:11:23;;;;;;;1.55;1.45;;;3.30;99.90;;;;;;5014323;28;20029;-75
2023/03/10 07:13:49;;;;;;;1.65;0.95;;;3.30;99.90;;;;;;5030345;28;20078;-76
2023/03/10 07:16:15;;;;;;;0.52;0.52;;;3.30;99.90;;;;;;5031855;28;20029;-77
2023/03/10 07:18:41;;;;;;;0.30;0.30;;;3.30;99.90;;;;;;5031902;28;20059;-76
2023/03/10 07:21:13;;;;;;;0.32;0.32;;;3.30;99.90;;;;;;5031510;28;20044;-74
2023/03/10 07:23:39;;;;;;;0.20;0.20;;;3.30;99.90;;;;;;5031464;28;20036;-74
2023/03/10 07:26:07;;;;;;;0.50;0.50;;;3.30;99.90;;;;;;5031739;28;20026;-74
2023/03/10 07:28:35;;;;;;;0.35;0.35;;;3.30;99.90;;;;;;5031285;28;20029;-75
2023/03/10 07:31:06;;;;;;;0.30;0.30;;;3.30;99.90;;;;;;5031273;28;20052;-76
2023/03/10 07:33:32;;;;;;;2.63;0.38;;;3.30;99.90;;;;;;5012505;28;20404;-75
2023/03/10 07:35:57;;;;;;;1.20;1.02;;;3.30;99.90;;;;;;5030566;28;20176;-75
2023/03/10 07:38:23;;;;;;;0.55;0.55;;;3.30;99.90;;;;;;5010047;28;20541;-73
2023/03/10 07:40:49;;;;;;;0.10;0.10;;;3.30;99.90;;;;;;5021571;28;20108;-75
2023/03/10 07:43:14;;;;;;;5.75;1.80;;;3.30;99.90;;;;;;5031578;28;20061;-74
2023/03/10 07:45:40;;;;;;;0.10;0.10;;;3.30;99.90;;;;;;5031538;28;20026;-74
2023/03/10 07:48:06;;;;;;;4.38;1.40;;;3.30;99.90;;;;;;5015213;28;20108;-75
2023/03/10 07:50:31;;;;;;;0.10;0.10;;;3.30;99.90;;;;;;5029342;28;20033;-73
2023/03/10 07:52:57;;;;;;;0.35;0.35;;;3.30;99.90;;;;;;5030442;28;20102;-73
2023/03/10 07:55:23;;;;;;;0.90;0.35;;;3.30;99.90;;;;;;5033023;28;20041;-73
2023/03/10 07:57:48;;;;;;;0.60;0.60;;;3.30;99.90;;;;;;5035157;28;20029;-75
2023/03/10 08:00:14;;;;;;;1.67;0.80;;;3.40;99.90;;;;;;5035441;28;20032;-73
2023/03/10 08:02:41;;;;;;;0.75;0.75;;;3.40;99.90;;;;;;5034514;28;20101;-74
2023/03/10 08:05:08;;;;;;;0.43;0.43;;;3.40;99.90;;;;;;5027828;28;20021;-73
2023/03/10 08:07:35;;;;;;;0.43;0.43;;;3.50;99.90;;;;;;5021707;28;20018;-75
2023/03/10 08:10:06;;;;;;;0.38;0.28;;;3.50;99.90;;;;;;5018844;28;20042;-75
2023/03/10 08:12:32;;;;;;;0.30;0.30;;;3.60;99.90;;;;;;5031203;28;20034;-73
2023/03/10 08:14:58;;;;;;;0.52;0.35;;;3.60;99.90;;;;;;5018799;28;20036;-73
2023/03/10 08:17:29;;;;;;;0.52;0.52;;;3.70;99.90;;;;;;5030586;28;20033;-73
2023/03/10 08:19:57;;;;;;;1.90;0.50;;;3.70;99.90;;;;;;5030675;28;20021;-73
2023/03/10 08:22:22;;;;;;;1.15;0.63;;;3.70;99.90;;;;;;5034668;28;20374;-74
2023/03/10 08:24:48;;;;;;;0.40;0.40;;;3.80;99.90;;;;;;5034442;28;20083;-74
2023/03/10 08:27:15;;;;;;;0.73;0.73;;;3.80;99.90;;;;;;5034107;28;20025;-73
2023/03/10 08:29:40;;;;;;;0.20;0.20;;;3.80;99.90;;;;;;5034074;28;20095;-75
2023/03/10 08:32:06;;;;;;;1.85;1.05;;;3.80;99.90;;;;;;5018399;28;20041;-74
2023/03/10 08:34:33;;;;;;;0.20;0.20;;;3.70;99.90;;;;;;5034415;28;20033;-75
2023/03/10 08:36:59;;;;;;;0.22;0.22;;;3.70;99.90;;;;;;5033907;28;20385;-72
2023/03/10 08:39:26;;;;;;;0.10;0.10;;;3.70;99.90;;;;;;5033843;28;20086;-74
2023/03/10 08:41:52;;;;;;;0.80;0.60;;;3.70;99.90;;;;;;5034409;28;20021;-72
2023/03/10 08:44:18;;;;;;;0.38;0.38;;;3.70;99.90;;;;;;5034246;28;20025;-74
2023/03/10 08:46:45;;;;;;;0.20;0.20;;;3.70;99.90;;;;;;5032188;28;20033;-73
2023/03/10 08:49:12;;;;;;;1.13;1.10;;;3.70;99.90;;;;;;5015035;28;20026;-73
2023/03/10 08:51:38;;;;;;;0.85;0.57;;;3.70;99.90;;;;;;5032992;28;20052;-74
2023/03/10 08:54:04;;;;;;;0.60;0.60;;;3.80;99.90;;;;;;5030452;28;20025;-73
2023/03/10 08:56:30;;;;;;;2.20;1.42;;;3.80;99.90;;;;;;5022182;28;20026;-74
2023/03/10 08:58:59;;;;;;;3.30;1.05;;;3.80;99.90;;;;;;5031632;28;20752;-75
2023/03/10 09:01:30;;;;;;;1.27;0.60;;;3.80;99.90;;;;;;5031527;28;20071;-75
2023/03/10 09:03:56;;;;;;;0.20;0.20;;;3.80;99.90;;;;;;5030977;28;20021;-74
2023/03/10 09:06:22;;;;;;;0.65;0.65;;;3.70;99.90;;;;;;5025599;28;20430;-74
2023/03/10 09:08:49;;;;;;;1.15;0.43;;;3.70;99.90;;;;;;5018236;28;20120;-73
2023/03/10 09:11:18;;;;;;;0.85;0.85;;;3.70;99.90;;;;;;5032999;28;20043;-74
2023/03/10 09:13:43;;;;;;;0.10;0.10;;;3.60;99.90;;;;;;5030520;28;20083;-74
2023/03/10 09:16:09;;;;;;;0.73;0.73;;;3.60;99.90;;;;;;5030509;28;20454;-75
2023/03/10 09:18:35;;;;;;;0.35;0.35;;;3.60;99.90;;;;;;5029984;28;20029;-76
2023/03/10 09:21:00;;;;;;;0.10;0.10;;;3.60;99.90;;;;;;5025967;28;20018;-75
2023/03/10 09:23:26;;;;;;;0.70;0.70;;;3.60;99.90;;;;;;5030214;28;20037;-73
2023/03/10 09:25:52;;;;;;;0.10;0.10;;;3.60;99.90;;;;;;5015880;28;20026;-74
2023/03/10 09:28:17;;;;;;;0.10;0.10;;;3.60;99.90;;;;;;5032696;28;20123;-74
2023/03/10 09:30:43;;;;;;;0.40;0.40;;;3.60;99.90;;;;;;5023908;28;20046;-73
2023/03/10 09:33:15;;;;;;;2.35;1.45;;;3.60;99.90;;;;;;5022463;28;20046;-74
2023/03/10 09:35:41;;;;;;;0.80;0.80;;;3.60;99.90;;;;;;5033452;28;20029;-75
2023/03/10 09:38:06;;;;;;;1.95;0.95;;;3.60;99.90;;;;;;5033594;28;20029;-75
2023/03/10 09:40:34;;;;;;;1.05;1.05;;;3.60;99.90;;;;;;5031079;28;20033;-74
2023/03/10 09:43:02;;;;;;;0.10;0.10;;;3.50;99.90;;;;;;5015386;28;20022;-73
2023/03/10 09:46:05;;;;;;;0.47;0.47;;;3.50;99.90;;;;;;5029430;28;20371;-74
2023/03/10 09:49:02;;;;;;;0.43;0.40;;;3.50;99.90;;;;;;5027047;28;20036;-75
2023/03/10 09:51:28;;;;;;;0.38;0.38;;;3.50;99.90;;;;;;5032203;28;20033;-75
2023/03/10 09:54:36;;;;;;;1.67;0.93;;;3.50;99.90;;;;;;5032890;28;20030;-76
2023/03/10 09:57:12;;;;;;;0.73;0.73;;;3.50;99.90;;;;;;5019576;28;20013;-73
2023/03/10 09:59:40;;;;;;;1.23;1.13;;;3.60;99.90;;;;;;5033155;28;20436;-74
2023/03/10 10:02:33;;;;;;;2.47;1.30;;;3.60;99.90;;;;;;5032717;28;20029;-75
2023/03/10 10:05:01;;;;;;;;;;;3.60;99.90;;;;;;5014709;28;20041;-75
2023/03/10 10:07:35;;;;;;;0.40;0.40;;;3.60;99.90;;;;;;5031758;28;19913;-74
2023/03/10 10:10:17;;;;;;;0.30;0.30;;;3.50;99.90;;;;;;5033056;28;20017;-74
2023/03/10 10:12:43;;;;;;;4.05;0.47;;;3.50;99.90;;;;;;5032976;28;20025;-75
2023/03/10 10:15:21;;;;;;;1.88;0.82;;;3.50;99.90;;;;;;5032568;28;20021;-74
2023/03/10 10:18:11;;;;;;;2.35;0.50;;;3.50;99.90;;;;;;5032405;28;20018;-75
2023/03/10 10:20:49;;;;;;;1.83;0.85;;;3.50;99.90;;;;;;5032332;28;20033;-76
2023/03/10 10:23:37;;;;;;;2.08;1.23;;;3.40;99.90;;;;;;5032096;28;20029;-75
2023/03/10 10:26:18;;;;;;;1.88;0.95;;;3.40;99.90;;;;;;5030786;28;20030;-74
2023/03/10 10:28:55;;;;;;;2.60;1.17;;;3.40;99.90;;;;;;5023687;28;20026;-73
2023/03/10 10:31:23;;;;;;;0.52;0.52;;;3.40;99.90;;;;;;5021116;28;20029;-73
2023/03/10 10:34:06;;;;;;;0.20;0.20;;;3.40;99.90;;;;;;5031977;28;20045;-75
2023/03/10 10:36:56;;;;;;;0.55;0.55;;;3.40;99.90;;;;;;5032494;28;20025;-74
2023/03/10 10:39:24;;;;;;;0.30;0.30;;;3.50;99.90;;;;;;5032273;28;20053;-74
2023/03/10 10:41:50;;;;;;;2.42;1.67;;;3.50;99.90;;;;;;5032217;28;20022;-73
2023/03/10 10:44:16;;;;;;;0.35;0.35;;;3.50;99.90;;;;;;5032290;28;20476;-75
2023/03/10 10:46:56;;;;;;;1.10;0.38;;;3.50;99.90;;;;;;5014268;28;20037;-74
2023/03/10 10:49:24;;;;;;;1.55;0.77;;;3.50;99.90;;;;;;5032204;28;20116;-75
2023/03/10 10:52:02;;;;;;;0.68;0.60;;;3.50;99.90;;;;;;5025299;28;20390;-75
2023/03/10 10:54:57;;;;;;;3.17;1.23;;;3.50;99.90;;;;;;5029806;28;20095;-72
2023/03/10 10:57:32;;;;;;;1.02;0.80;;;3.40;99.90;;;;;;5030980;28;20076;-74
2023/03/10 11:00:25;;;;;;;1.08;1.00;;;3.50;99.90;;;;;;5031985;28;20040;-73
2023/03/10 11:02:51;;;;;;;0.43;0.43;;;3.50;99.90;;;;;;5016551;28;20034;-73
2023/03/10 11:05:23;;;;;;;1.60;1.50;;;3.60;99.90;;;;;;5031686;28;20029;-74
2023/03/10 11:07:52;;;;;;;;;;;3.60;99.90;;;;;;5032708;28;20128;-74
2023/03/10 11:10:22;;;;;;;0.40;0.40;;;3.60;99.90;;;;;;5031250;28;19913;-73
2023/03/10 11:13:00;;;;;;;1.00;1.00;;;3.60;99.90;;;;;;5030925;28;20037;-74
2023/03/10 11:15:35;;;;;;;5.07;1.58;;;3.60;99.90;;;;;;5024470;28;20033;-75
2023/03/10 11:18:27;;;;;;;0.65;0.65;;;3.60;99.90;;;;;;5027695;28;20061;-74
2023/03/10 11:21:10;;;;;;;1.52;1.42;;;3.60;99.90;;;;;;5026682;28;20029;-75
2023/03/10 11:23:48;;;;;;;3.83;1.40;;;3.60;99.90;;;;;;5014246;28;20034;-74
2023/03/10 11:26:32;;;;;;;1.70;1.20;;;3.60;99.90;;;;;;5031598;28;20022;-72
2023/03/10 11:29:34;;;;;;;2.92;1.13;;;3.70;99.90;;;;;;5016589;28;20155;-72
2023/03/10 11:32:25;;;;;;;0.30;0.30;;;3.70;99.90;;;;;;5028954;28;20560;-73
2023/03/10 11:34:54;;;;;;;0.77;0.77;;;3.70;99.90;;;;;;5020328;28;20021;-73
2023/03/10 11:37:45;;;;;;;0.40;0.40;;;3.90;99.90;;;;;;5035752;28;20025;-72
2023/03/10 11:40:30;;;;;;;0.60;0.60;;;3.90;99.90;;;;;;5034871;28;20420;-73
2023/03/10 11:43:17;;;;;;;4.05;2.13;;;3.90;99.90;;;;;;5020884;28;20112;-75
2023/03/10 11:45:53;;;;;;;0.28;0.28;;;3.80;99.90;;;;;;5035453;28;20060;-72
2023/03/10 11:48:37;;;;;;;0.73;0.73;;;3.80;99.90;;;;;;5035199;28;20036;-75
2023/03/10 11:51:04;;;;;;;0.63;0.63;;;3.80;99.90;;;;;;5016486;28;20037;-74
2023/03/10 11:53:50;;;;;;;0.52;0.52;;;3.70;99.90;;;;;;5035299;28;20175;-73
2023/03/10 11:56:20;;;;;;;1.90;0.85;;;3.70;99.90;;;;;;5035536;28;20029;-73
2023/03/10 11:58:47;;;;;;;1.02;0.50;;;3.60;99.90;;;;;;5027004;28;20028;-74
2023/03/10 12:01:22;;;;;;;0.20;0.20;;;3.60;99.90;;;;;;5035344;28;20108;-75
2023/03/10 12:04:18;;;;;;;0.57;0.57;;;3.60;99.90;;;;;;5035314;28;20033;-74
2023/03/10 12:06:52;;;;;;;0.32;0.32;;;3.60;99.90;;;;;;5035380;28;20026;-72
2023/03/10 12:09:37;;;;;;;1.58;1.40;;;3.60;99.90;;;;;;5035101;28;20056;-75
2023/03/10 12:12:03;;;;;;;0.60;0.60;;;3.40;99.90;;;;;;5035174;28;20042;-74
2023/03/10 12:14:30;;;;;;;6.35;1.73;;;3.40;99.90;;;;;;5034882;28;20017;-73
2023/03/10 12:16:56;;;;;;;2.92;1.20;;;3.30;99.90;;;;;;5017459;28;20033;-73
2023/03/10 12:19:21;;;;;;;16.25;7.10;;;3.30;99.90;;;;;;5035200;28;20030;-75
2023/03/10 12:22:19;;;;;;;20.27;7.72;;;3.20;99.90;;;;;;5035189;28;20053;-73
2023/03/10 12:24:46;;;;;;;19.25;7.45;;;3.20;99.90;;;;;;5025003;28;20021;-73
2023/03/10 12:27:12;;;;;;;17.48;7.57;;;3.20;99.90;;;;;;5035043;28;20446;-75
2023/03/10 12:29:42;;;;;;;19.90;8.20;;;3.20;99.90;;;;;;5034697;28;20064;-75
2023/03/10 12:32:40;;;;;;;15.82;6.72;;;3.20;99.90;;;;;;5034859;28;20041;-74
2023/03/10 12:35:43;;;;;;;15.55;6.78;;;3.20;99.90;;;;;;5021835;28;20056;-73
2023/03/10 12:38:38;;;;;;;16.05;7.80;;;3.10;99.90;;;;;;5033461;28;20033;-73
2023/03/10 12:41:04;;;;;;;1.70;1.27;;;3.10;99.90;;;;;;5023469;28;20211;-73
2023/03/10 12:43:55;;;;;;;0.20;0.20;;;3.00;99.90;;;;;;5034598;28;20136;-73
2023/03/10 12:46:28;;;;;;;2.03;1.53;;;2.90;99.90;;;;;;5031659;28;20435;-73
2023/03/10 12:49:17;;;;;;;0.25;0.25;;;2.90;99.90;;;;;;5034045;28;20376;-73
2023/03/10 12:51:48;;;;;;;0.32;0.32;;;2.90;99.90;;;;;;5034450;28;20033;-73
2023/03/10 12:54:44;;;;;;;1.10;0.98;;;2.90;99.90;;;;;;5032507;28;20024;-73
2023/03/10 12:57:38;;;;;;;0.75;0.75;;;2.80;99.90;;;;;;5028104;28;20105;-73
2023/03/10 13:00:29;;;;;;;0.45;0.45;;;2.70;99.90;;;;;;5028203;28;20033;-75
2023/03/10 13:03:34;;;;;;;5.78;1.98;;;2.70;99.90;;;;;;5019072;28;20025;-73
2023/03/10 13:06:12;;;;;;;2.63;1.38;;;2.60;99.90;;;;;;5033427;28;20079;-73
2023/03/10 13:08:51;;;;;;;1.52;1.02;;;2.70;99.90;;;;;;5033925;28;20095;-74
2023/03/10 13:11:36;;;;;;;0.35;0.35;;;2.60;99.90;;;;;;5034210;28;20032;-73
2023/03/10 13:14:13;;;;;;;0.25;0.25;;;2.60;99.90;;;;;;5023162;28;20034;-74